Terminal Aerodrome Forecast
Issued by NWS Portland, ME

Current Version | Previous Version | Text Only | Print | Product List | Glossary On
Versions: 1 2 3 4 5 6 7 8 9 10 11 12 13 14 15 16 17 18 19 20 21
000
FTUS41 KGYX 071929 AAB
TAFPWM
TAF AMD
KPWM 071929Z 0719/0818 19012G20KT P6SM SCT012 SCT040
      TEMPO 0719/0723 -SHRA BKN012 BKN040 BKN090
     FM080000 17008KT 4SM BR BKN012 OVC040
     FM081000 19005KT 6SM -SHRA BR OVC012
     FM081300 27009KT P6SM BKN050=

USA.gov is the U.S. government's official web portal to all federal, state and local government web resources and services.